createdAt,value
2017-03-06T00:01:09.805Z,0
2017-03-06T00:02:22.878Z,0
2017-03-06T00:03:35.563Z,0
2017-03-06T00:04:48.621Z,0
2017-03-06T00:06:01.755Z,0
2017-03-06T00:07:14.833Z,0
2017-03-06T00:08:27.886Z,0
2017-03-06T00:09:40.927Z,0
2017-03-06T00:10:53.977Z,0
2017-03-06T00:12:07.042Z,0
2017-03-06T00:13:20.159Z,0
2017-03-06T00:14:33.265Z,0
2017-03-06T00:15:46.360Z,0
2017-03-06T00:16:59.080Z,0
2017-03-06T00:18:11.772Z,0
2017-03-06T00:19:24.818Z,0
2017-03-06T00:20:37.510Z,0
2017-03-06T00:21:50.556Z,0
2017-03-06T00:23:03.638Z,0
2017-03-06T00:24:16.769Z,0
2017-03-06T00:25:29.697Z,0
2017-03-06T00:26:42.774Z,0
2017-03-06T00:27:55.434Z,0
2017-03-06T00:29:08.485Z,0
2017-03-06T00:30:21.553Z,0
2017-03-06T00:31:34.250Z,0
2017-03-06T00:32:46.929Z,0
2017-03-06T00:33:59.612Z,0
2017-03-06T00:35:12.669Z,0
2017-03-06T00:36:25.738Z,0
2017-03-06T00:37:38.856Z,0
2017-03-06T00:38:51.948Z,0
2017-03-06T00:40:04.640Z,0
2017-03-06T00:41:17.747Z,0
2017-03-06T00:42:31.082Z,0
2017-03-06T00:43:44.177Z,0
2017-03-06T00:44:57.256Z,0
2017-03-06T00:46:09.928Z,0
2017-03-06T00:47:22.619Z,0
2017-03-06T00:48:35.320Z,0
2017-03-06T00:49:48.415Z,0
2017-03-06T00:51:01.488Z,0
2017-03-06T00:52:14.561Z,0
2017-03-06T00:53:27.685Z,0
2017-03-06T00:54:40.802Z,0
2017-03-06T00:55:53.871Z,0
2017-03-06T00:57:06.967Z,0
2017-03-06T00:58:20.089Z,0
2017-03-06T00:59:32.783Z,0
2017-03-06T01:00:45.878Z,0
2017-03-06T01:01:58.915Z,0
2017-03-06T01:03:11.624Z,0
2017-03-06T01:04:24.333Z,0
2017-03-06T01:05:37.402Z,0
2017-03-06T01:06:50.086Z,0
2017-03-06T01:08:03.124Z,0
2017-03-06T01:09:15.792Z,0
2017-03-06T01:10:28.891Z,0
2017-03-06T01:11:41.961Z,0
2017-03-06T01:12:55.059Z,0
2017-03-06T01:14:08.110Z,0
2017-03-06T01:15:21.180Z,0
2017-03-06T01:16:33.829Z,0
2017-03-06T01:17:46.893Z,0
2017-03-06T01:18:59.950Z,0
2017-03-06T01:20:13.254Z,0
2017-03-06T01:21:26.408Z,0
2017-03-06T01:22:39.482Z,0
2017-03-06T01:23:52.569Z,0
2017-03-06T01:25:05.222Z,0
2017-03-06T01:26:18.261Z,0
2017-03-06T01:27:30.957Z,0
2017-03-06T01:28:44.003Z,0
2017-03-06T01:29:56.696Z,0
2017-03-06T01:31:09.731Z,0
2017-03-06T01:32:22.822Z,0
2017-03-06T01:33:35.091Z,0
2017-03-06T01:34:48.187Z,0
2017-03-06T01:36:01.251Z,0
2017-03-06T01:37:14.328Z,0
2017-03-06T01:38:27.395Z,0
2017-03-06T01:39:39.754Z,0
2017-03-06T01:40:52.817Z,0
2017-03-06T01:42:05.883Z,0
2017-03-06T01:43:18.976Z,0
2017-03-06T01:44:32.032Z,0
2017-03-06T01:45:45.125Z,0
2017-03-06T01:46:57.424Z,0
2017-03-06T01:48:10.488Z,0
2017-03-06T01:49:23.543Z,0
2017-03-06T01:50:36.679Z,0
2017-03-06T01:51:49.735Z,0
2017-03-06T01:53:02.808Z,0
2017-03-06T01:54:15.863Z,0
2017-03-06T01:55:28.920Z,0
2017-03-06T01:56:42.017Z,0
2017-03-06T01:57:55.338Z,0
2017-03-06T01:59:08.404Z,0
2017-03-06T02:00:21.455Z,0
2017-03-06T02:01:34.521Z,0
2017-03-06T02:02:47.213Z,0
2017-03-06T02:04:00.338Z,0
2017-03-06T02:05:13.384Z,0
2017-03-06T02:06:26.079Z,0
2017-03-06T02:07:38.743Z,0
2017-03-06T02:08:51.797Z,0
2017-03-06T02:10:04.844Z,0
2017-03-06T02:11:17.967Z,0
2017-03-06T02:12:31.059Z,0
2017-03-06T02:13:44.127Z,0
2017-03-06T02:14:57.224Z,0
2017-03-06T02:16:10.306Z,0
2017-03-06T02:17:23.344Z,0
2017-03-06T02:18:36.371Z,0
2017-03-06T02:19:49.660Z,0
2017-03-06T02:21:02.727Z,0
2017-03-06T02:22:15.824Z,0
2017-03-06T02:23:28.140Z,0
2017-03-06T02:24:41.193Z,0
2017-03-06T02:25:54.281Z,0
2017-03-06T02:27:07.341Z,0
2017-03-06T02:28:20.385Z,0
2017-03-06T02:29:33.456Z,0
2017-03-06T02:30:46.497Z,0
2017-03-06T02:31:59.545Z,0
2017-03-06T02:33:12.618Z,0
2017-03-06T02:34:25.682Z,0
2017-03-06T02:35:38.734Z,0
2017-03-06T02:36:51.787Z,0
2017-03-06T02:38:04.869Z,0
2017-03-06T02:39:17.944Z,0
2017-03-06T02:40:30.985Z,0
2017-03-06T02:41:44.057Z,0
2017-03-06T02:42:57.106Z,0
2017-03-06T02:44:10.180Z,0
2017-03-06T02:45:23.265Z,0
2017-03-06T02:46:36.590Z,0
2017-03-06T02:47:49.693Z,0
2017-03-06T02:49:02.732Z,0
2017-03-06T02:50:15.852Z,0
2017-03-06T02:51:28.927Z,0
2017-03-06T02:52:41.998Z,0
2017-03-06T02:53:55.072Z,0
2017-03-06T02:55:07.758Z,0
2017-03-06T02:56:20.786Z,0
2017-03-06T02:57:33.078Z,0
2017-03-06T02:58:46.152Z,0
2017-03-06T02:59:58.824Z,0
2017-03-06T03:01:11.875Z,0
2017-03-06T03:02:24.965Z,0
2017-03-06T03:03:38.036Z,0
2017-03-06T03:04:51.085Z,0
2017-03-06T03:06:03.753Z,0
2017-03-06T03:07:16.420Z,0
2017-03-06T03:08:29.512Z,0
2017-03-06T03:09:42.545Z,0
2017-03-06T03:10:55.633Z,0
2017-03-06T03:12:08.360Z,0
2017-03-06T03:13:21.432Z,0
2017-03-06T03:14:34.503Z,0
2017-03-06T03:15:47.200Z,0
2017-03-06T03:16:59.858Z,0
2017-03-06T03:18:12.940Z,0
2017-03-06T03:19:26.004Z,0
2017-03-06T03:20:39.082Z,0
2017-03-06T03:21:52.207Z,0
2017-03-06T03:23:04.938Z,0
2017-03-06T03:24:17.984Z,0
2017-03-06T03:25:31.040Z,0
2017-03-06T03:26:44.075Z,0
2017-03-06T03:27:57.156Z,0
2017-03-06T03:29:09.442Z,0
2017-03-06T03:30:22.774Z,0
2017-03-06T03:31:35.844Z,0
2017-03-06T03:32:48.914Z,0
2017-03-06T03:34:01.988Z,0
2017-03-06T03:35:15.080Z,0
2017-03-06T03:36:27.393Z,0
2017-03-06T03:37:40.451Z,0
2017-03-06T03:38:53.494Z,0
2017-03-06T03:40:06.565Z,0
2017-03-06T03:41:19.253Z,0
2017-03-06T03:42:32.310Z,0
2017-03-06T03:43:45.399Z,0
2017-03-06T03:44:58.448Z,0
2017-03-06T03:46:11.145Z,0
2017-03-06T03:47:24.255Z,0
2017-03-06T03:48:36.926Z,0
2017-03-06T03:49:49.982Z,0
2017-03-06T03:51:03.054Z,0
2017-03-06T03:52:16.441Z,0
2017-03-06T03:53:29.116Z,0
2017-03-06T03:54:42.188Z,0
2017-03-06T03:55:55.280Z,0
2017-03-06T03:57:08.359Z,0
2017-03-06T03:58:21.405Z,0
2017-03-06T03:59:34.525Z,0
2017-03-06T04:00:46.867Z,0
2017-03-06T04:01:59.913Z,0
2017-03-06T04:03:12.813Z,0
2017-03-06T04:04:25.884Z,0
2017-03-06T04:05:38.601Z,0
2017-03-06T04:06:51.700Z,0
2017-03-06T04:08:04.760Z,0
2017-03-06T04:09:17.813Z,0
2017-03-06T04:10:30.888Z,0
2017-03-06T04:11:43.937Z,0
2017-03-06T04:12:57.031Z,0
2017-03-06T04:14:10.092Z,0
2017-03-06T04:15:23.188Z,0
2017-03-06T04:16:36.268Z,0
2017-03-06T04:17:49.331Z,0
2017-03-06T04:19:02.005Z,0
2017-03-06T04:20:14.305Z,0
2017-03-06T04:21:26.979Z,0
2017-03-06T04:22:40.092Z,0
2017-03-06T04:23:52.732Z,0
2017-03-06T04:25:05.803Z,0
2017-03-06T04:26:18.848Z,0
2017-03-06T04:27:31.894Z,0
2017-03-06T04:28:44.951Z,0
2017-03-06T04:29:58.022Z,0
2017-03-06T04:31:11.088Z,0
2017-03-06T04:32:24.160Z,0
2017-03-06T04:33:36.827Z,0
2017-03-06T04:34:49.883Z,0
2017-03-06T04:36:03.002Z,0
2017-03-06T04:37:15.713Z,0
2017-03-06T04:38:28.789Z,0
2017-03-06T04:39:41.461Z,0
2017-03-06T04:40:54.536Z,0
2017-03-06T04:42:07.603Z,0
2017-03-06T04:43:20.652Z,0
2017-03-06T04:44:33.722Z,0
2017-03-06T04:45:46.457Z,0
2017-03-06T04:46:59.154Z,0
2017-03-06T04:48:12.198Z,0
2017-03-06T04:49:25.282Z,0
2017-03-06T04:50:37.998Z,0
2017-03-06T04:51:51.068Z,0
2017-03-06T04:53:04.168Z,0
2017-03-06T04:54:17.214Z,0
2017-03-06T04:55:30.278Z,0
2017-03-06T04:56:43.320Z,0
2017-03-06T04:57:56.369Z,0
2017-03-06T04:59:09.071Z,0
2017-03-06T05:00:22.120Z,0
2017-03-06T05:01:35.163Z,0
2017-03-06T05:02:47.849Z,0
2017-03-06T05:04:00.946Z,0
2017-03-06T05:05:14.054Z,0
2017-03-06T05:06:27.119Z,0
2017-03-06T05:07:40.183Z,0
2017-03-06T05:08:53.240Z,4
2017-03-06T05:10:06.379Z,4
2017-03-06T05:11:19.099Z,0
2017-03-06T05:12:32.178Z,4
2017-03-06T05:13:45.291Z,4
2017-03-06T05:14:57.991Z,4
2017-03-06T05:16:11.079Z,8
2017-03-06T05:17:24.157Z,8
2017-03-06T05:18:37.228Z,8
2017-03-06T05:19:50.145Z,12
2017-03-06T05:21:03.228Z,12
2017-03-06T05:22:16.312Z,20
2017-03-06T05:23:29.387Z,24
2017-03-06T05:24:42.438Z,28
2017-03-06T05:25:55.499Z,32
2017-03-06T05:27:08.568Z,40
2017-03-06T05:28:21.592Z,48
2017-03-06T05:29:34.270Z,60
2017-03-06T05:30:46.929Z,68
2017-03-06T05:32:00.037Z,80
2017-03-06T05:33:13.095Z,96
2017-03-06T05:34:26.152Z,108
2017-03-06T05:35:39.199Z,132
2017-03-06T05:36:52.267Z,152
2017-03-06T05:38:05.316Z,176
2017-03-06T05:39:18.362Z,200
2017-03-06T05:40:31.429Z,224
2017-03-06T05:41:44.472Z,252
2017-03-06T05:42:57.553Z,280
2017-03-06T05:44:10.644Z,304
2017-03-06T05:45:23.763Z,336
2017-03-06T05:46:36.684Z,372
2017-03-06T05:47:49.363Z,412
2017-03-06T05:49:02.428Z,460
2017-03-06T05:50:15.524Z,504
2017-03-06T05:51:28.609Z,540
2017-03-06T05:52:41.665Z,576
2017-03-06T05:53:54.777Z,608
2017-03-06T05:55:07.838Z,644
2017-03-06T05:56:20.893Z,684
2017-03-06T05:57:33.550Z,728
2017-03-06T05:58:46.250Z,768
2017-03-06T05:59:59.338Z,816
2017-03-06T06:01:12.388Z,868
2017-03-06T06:02:25.501Z,932
2017-03-06T06:03:38.855Z,996
2017-03-06T06:04:51.947Z,1064
2017-03-06T06:06:04.621Z,1132
2017-03-06T06:07:17.709Z,1208
2017-03-06T06:08:29.977Z,1284
2017-03-06T06:09:42.649Z,1372
2017-03-06T06:10:55.323Z,1456
2017-03-06T06:12:08.448Z,1560
2017-03-06T06:13:21.114Z,1664
2017-03-06T06:14:34.185Z,1784
2017-03-06T06:15:47.256Z,1904
2017-03-06T06:17:00.302Z,2020
2017-03-06T06:18:13.376Z,2132
2017-03-06T06:19:26.069Z,2232
2017-03-06T06:20:39.160Z,2324
2017-03-06T06:21:52.269Z,2408
2017-03-06T06:23:05.328Z,2504
2017-03-06T06:24:17.681Z,2592
2017-03-06T06:25:30.756Z,2688
2017-03-06T06:26:43.843Z,2784
2017-03-06T06:27:56.524Z,2872
2017-03-06T06:29:09.590Z,2948
2017-03-06T06:30:22.656Z,3016
2017-03-06T06:31:35.735Z,3076
2017-03-06T06:32:48.827Z,3132
2017-03-06T06:34:01.879Z,3176
2017-03-06T06:35:14.987Z,3212
2017-03-06T06:36:28.037Z,3240
2017-03-06T06:37:40.714Z,3252
2017-03-06T06:38:53.807Z,3268
2017-03-06T06:40:06.881Z,3304
2017-03-06T06:41:19.208Z,3368
2017-03-06T06:42:32.287Z,3460
2017-03-06T06:43:45.366Z,3564
2017-03-06T06:44:58.466Z,3672
2017-03-06T06:46:11.525Z,3776
2017-03-06T06:47:24.886Z,3876
2017-03-06T06:48:37.945Z,3980
2017-03-06T06:49:51.027Z,4092
2017-03-06T06:51:04.098Z,4224
2017-03-06T06:52:17.164Z,4360
2017-03-06T06:53:30.257Z,4496
2017-03-06T06:54:43.356Z,4636
2017-03-06T06:55:56.428Z,4776
2017-03-06T06:57:09.475Z,4904
2017-03-06T06:58:22.543Z,5000
2017-03-06T06:59:35.605Z,5072
2017-03-06T07:00:48.658Z,5104
2017-03-06T07:02:01.721Z,5172
2017-03-06T07:03:14.654Z,5276
2017-03-06T07:04:27.752Z,5424
2017-03-06T07:05:40.833Z,5600
2017-03-06T07:06:53.869Z,5788
2017-03-06T07:08:06.937Z,5968
2017-03-06T07:09:19.997Z,6136
2017-03-06T07:10:33.093Z,6316
2017-03-06T07:11:46.149Z,6480
2017-03-06T07:12:59.220Z,6640
2017-03-06T07:14:11.913Z,6788
2017-03-06T07:15:24.605Z,6948
2017-03-06T07:16:37.687Z,7104
2017-03-06T07:17:50.356Z,7264
2017-03-06T07:19:03.396Z,7404
2017-03-06T07:20:16.442Z,7532
2017-03-06T07:21:29.491Z,7640
2017-03-06T07:22:42.188Z,7736
2017-03-06T07:23:55.246Z,7820
2017-03-06T07:25:08.276Z,7904
2017-03-06T07:26:21.324Z,7988
2017-03-06T07:27:34.021Z,8040
2017-03-06T07:28:47.089Z,8048
2017-03-06T07:30:00.180Z,8036
2017-03-06T07:31:13.275Z,8012
2017-03-06T07:32:26.332Z,7992
2017-03-06T07:33:39.422Z,8012
2017-03-06T07:34:52.469Z,8068
2017-03-06T07:36:05.538Z,8184
2017-03-06T07:37:18.230Z,8368
2017-03-06T07:38:31.308Z,8572
2017-03-06T07:39:43.980Z,8760
2017-03-06T07:40:56.664Z,8892
2017-03-06T07:42:09.340Z,8984
2017-03-06T07:43:22.435Z,9052
2017-03-06T07:44:35.527Z,9100
2017-03-06T07:45:48.222Z,9144
2017-03-06T07:47:01.307Z,9200
2017-03-06T07:48:14.000Z,9280
2017-03-06T07:49:27.089Z,9412
2017-03-06T07:50:40.189Z,9608
2017-03-06T07:51:52.860Z,9872
2017-03-06T07:53:05.932Z,10224
2017-03-06T07:54:18.981Z,10656
2017-03-06T07:55:32.075Z,11156
2017-03-06T07:56:45.135Z,11624
2017-03-06T07:57:57.060Z,12060
2017-03-06T07:59:10.139Z,12436
2017-03-06T08:00:23.223Z,12716
2017-03-06T08:01:36.273Z,12944
2017-03-06T08:02:49.344Z,13172
2017-03-06T08:04:02.072Z,13416
2017-03-06T08:05:15.140Z,13692
2017-03-06T08:06:28.207Z,13988
2017-03-06T08:07:41.309Z,14284
2017-03-06T08:08:54.352Z,14544
2017-03-06T08:10:07.043Z,14748
2017-03-06T08:11:19.740Z,14900
2017-03-06T08:12:32.818Z,14984
2017-03-06T08:13:45.504Z,15024
2017-03-06T08:14:58.632Z,15032
2017-03-06T08:16:11.333Z,14988
2017-03-06T08:17:24.401Z,14912
2017-03-06T08:18:37.115Z,14792
2017-03-06T08:19:50.057Z,14632
2017-03-06T08:21:02.740Z,14400
2017-03-06T08:22:15.861Z,14104
2017-03-06T08:23:28.974Z,13768
2017-03-06T08:24:42.052Z,13444
2017-03-06T08:25:55.148Z,13160
2017-03-06T08:27:08.218Z,12900
2017-03-06T08:28:20.932Z,12692
2017-03-06T08:29:34.012Z,12556
2017-03-06T08:30:47.055Z,12472
2017-03-06T08:32:00.186Z,12420
2017-03-06T08:33:13.245Z,12404
2017-03-06T08:34:26.321Z,12408
2017-03-06T08:35:39.428Z,12436
2017-03-06T08:36:52.113Z,12464
2017-03-06T08:38:04.828Z,12516
2017-03-06T08:39:17.944Z,12588
2017-03-06T08:40:31.041Z,12684
2017-03-06T08:41:44.335Z,12760
2017-03-06T08:42:57.466Z,12824
2017-03-06T08:44:10.200Z,12852
2017-03-06T08:45:23.256Z,12840
2017-03-06T08:46:36.304Z,12788
2017-03-06T08:47:49.016Z,12704
2017-03-06T08:49:02.107Z,12592
2017-03-06T08:50:14.807Z,12452
2017-03-06T08:51:27.479Z,12316
2017-03-06T08:52:40.205Z,12148
2017-03-06T08:53:53.274Z,11940
2017-03-06T08:55:05.951Z,11736
2017-03-06T08:56:19.021Z,11636
2017-03-06T08:57:31.717Z,11600
2017-03-06T08:58:44.028Z,11640
2017-03-06T08:59:57.096Z,11736
2017-03-06T09:01:09.769Z,11904
2017-03-06T09:02:22.867Z,12024
2017-03-06T09:03:35.941Z,12028
2017-03-06T09:04:49.041Z,12024
2017-03-06T09:06:02.086Z,11972
2017-03-06T09:07:15.145Z,11904
2017-03-06T09:08:27.803Z,11880
2017-03-06T09:09:40.117Z,11816
2017-03-06T09:10:52.837Z,11844
2017-03-06T09:12:05.567Z,12020
2017-03-06T09:13:18.634Z,12224
2017-03-06T09:14:31.696Z,12296
2017-03-06T09:15:44.776Z,12160
2017-03-06T09:16:57.873Z,11908
2017-03-06T09:18:10.183Z,11640
2017-03-06T09:19:22.914Z,11512
2017-03-06T09:20:35.604Z,11736
2017-03-06T09:21:48.322Z,12288
2017-03-06T09:23:01.367Z,13028
2017-03-06T09:24:14.423Z,13560
2017-03-06T09:25:27.535Z,13932
2017-03-06T09:26:40.563Z,14096
2017-03-06T09:27:53.609Z,14076
2017-03-06T09:29:06.701Z,13952
2017-03-06T09:30:19.768Z,13832
2017-03-06T09:31:32.878Z,14028
2017-03-06T09:32:45.960Z,14260
2017-03-06T09:33:58.642Z,14676
2017-03-06T09:35:11.759Z,15012
2017-03-06T09:36:24.422Z,15080
2017-03-06T09:37:36.729Z,14912
2017-03-06T09:38:49.831Z,14700
2017-03-06T09:40:02.897Z,14432
2017-03-06T09:41:15.214Z,14384
2017-03-06T09:42:27.914Z,14464
2017-03-06T09:43:41.006Z,14652
2017-03-06T09:44:54.130Z,14712
2017-03-06T09:46:07.229Z,14740
2017-03-06T09:47:20.274Z,14808
2017-03-06T09:48:32.964Z,14956
2017-03-06T09:49:45.651Z,15188
2017-03-06T09:50:58.362Z,15428
2017-03-06T09:52:11.431Z,15620
2017-03-06T09:53:24.125Z,15768
2017-03-06T09:54:36.795Z,15868
2017-03-06T09:55:49.848Z,15884
2017-03-06T09:57:02.910Z,15808
2017-03-06T09:58:15.610Z,15628
2017-03-06T09:59:28.744Z,15344
2017-03-06T10:00:41.803Z,15132
2017-03-06T10:01:54.911Z,15112
2017-03-06T10:03:07.991Z,15084
2017-03-06T10:04:21.089Z,14980
2017-03-06T10:05:34.181Z,14796
2017-03-06T10:06:47.244Z,14632
2017-03-06T10:08:00.302Z,14628
2017-03-06T10:09:12.936Z,14792
2017-03-06T10:10:25.632Z,15080
2017-03-06T10:11:38.285Z,15456
2017-03-06T10:12:51.356Z,16028
2017-03-06T10:14:04.424Z,16668
2017-03-06T10:15:17.494Z,16944
2017-03-06T10:16:30.175Z,16676
2017-03-06T10:17:43.282Z,15872
2017-03-06T10:18:55.962Z,14724
2017-03-06T10:20:09.012Z,13556
2017-03-06T10:21:22.103Z,12524
2017-03-06T10:22:35.190Z,11664
2017-03-06T10:23:47.503Z,11096
2017-03-06T10:25:00.582Z,10716
2017-03-06T10:26:13.264Z,10612
2017-03-06T10:27:26.361Z,10560
2017-03-06T10:28:39.446Z,10256
2017-03-06T10:29:52.145Z,9712
2017-03-06T10:31:04.837Z,9172
2017-03-06T10:32:17.521Z,8748
2017-03-06T10:33:30.618Z,8692
2017-03-06T10:34:43.328Z,8984
2017-03-06T10:35:56.408Z,9280
2017-03-06T10:37:09.477Z,9324
2017-03-06T10:38:22.548Z,9252
2017-03-06T10:39:35.236Z,9312
2017-03-06T10:40:48.308Z,9476
2017-03-06T10:42:01.389Z,9700
2017-03-06T10:43:14.078Z,9868
2017-03-06T10:44:27.151Z,10016
2017-03-06T10:45:40.199Z,9964
2017-03-06T10:46:53.261Z,9492
2017-03-06T10:48:06.343Z,8768
2017-03-06T10:49:18.304Z,8168
2017-03-06T10:50:31.353Z,8048
2017-03-06T10:51:44.442Z,8208
2017-03-06T10:52:57.502Z,8492
2017-03-06T10:54:10.642Z,8932
2017-03-06T10:55:23.339Z,9496
2017-03-06T10:56:36.408Z,9948
2017-03-06T10:57:49.554Z,10168
2017-03-06T10:59:02.278Z,10892
2017-03-06T11:00:15.379Z,12616
2017-03-06T11:01:28.469Z,14496
2017-03-06T11:02:41.533Z,15804
2017-03-06T11:03:54.229Z,16676
2017-03-06T11:05:07.308Z,17568
2017-03-06T11:06:20.029Z,18272
2017-03-06T11:07:33.100Z,18912
2017-03-06T11:08:46.159Z,19360
2017-03-06T11:09:59.210Z,19296
2017-03-06T11:11:12.288Z,19968
2017-03-06T11:12:25.363Z,20608
2017-03-06T11:13:38.081Z,21376
2017-03-06T11:14:51.189Z,22208
2017-03-06T11:16:04.246Z,22848
2017-03-06T11:17:17.330Z,22880
2017-03-06T11:18:30.387Z,22720
2017-03-06T11:19:43.472Z,22624
2017-03-06T11:20:56.546Z,22080
2017-03-06T11:22:09.625Z,22048
2017-03-06T11:23:22.695Z,21856
2017-03-06T11:24:35.759Z,21664
2017-03-06T11:25:48.859Z,20928
2017-03-06T11:27:01.548Z,20416
2017-03-06T11:28:14.268Z,20704
2017-03-06T11:29:26.922Z,21280
2017-03-06T11:30:39.618Z,21472
2017-03-06T11:31:52.692Z,21248
2017-03-06T11:33:05.014Z,20800
2017-03-06T11:34:18.080Z,20480
2017-03-06T11:35:30.757Z,19968
2017-03-06T11:36:43.868Z,19552
2017-03-06T11:37:56.934Z,19456
2017-03-06T11:39:09.993Z,19680
2017-03-06T11:40:23.064Z,19904
2017-03-06T11:41:36.107Z,20160
2017-03-06T11:42:49.226Z,20448
2017-03-06T11:44:02.294Z,20608
2017-03-06T11:45:15.389Z,20800
2017-03-06T11:46:28.431Z,21024
2017-03-06T11:47:41.109Z,21344
2017-03-06T11:48:54.189Z,21696
2017-03-06T11:50:07.319Z,22112
2017-03-06T11:51:20.427Z,22336
2017-03-06T11:52:33.112Z,22336
2017-03-06T11:53:46.214Z,22240
2017-03-06T11:54:58.906Z,22208
2017-03-06T11:56:12.027Z,21792
2017-03-06T11:57:25.402Z,20960
2017-03-06T11:58:38.443Z,21088
2017-03-06T11:59:51.162Z,21568
2017-03-06T12:01:04.317Z,22208
2017-03-06T12:02:17.389Z,22912
2017-03-06T12:03:30.078Z,23424
2017-03-06T12:04:43.179Z,23232
2017-03-06T12:05:56.245Z,23168
2017-03-06T12:07:09.348Z,23200
2017-03-06T12:08:22.422Z,22976
2017-03-06T12:09:35.513Z,22048
2017-03-06T12:10:48.607Z,21408
2017-03-06T12:12:01.274Z,20800
2017-03-06T12:13:14.402Z,20256
2017-03-06T12:14:26.720Z,19712
2017-03-06T12:15:39.770Z,18336
2017-03-06T12:16:52.486Z,16208
2017-03-06T12:18:05.557Z,14560
2017-03-06T12:19:18.629Z,13948
2017-03-06T12:20:31.707Z,14292
2017-03-06T12:21:44.790Z,14240
2017-03-06T12:22:57.832Z,13124
2017-03-06T12:24:10.541Z,12164
2017-03-06T12:25:22.485Z,12292
2017-03-06T12:26:35.546Z,12240
2017-03-06T12:27:48.624Z,11420
2017-03-06T12:29:01.688Z,10384
2017-03-06T12:30:14.768Z,9632
2017-03-06T12:31:27.491Z,8936
2017-03-06T12:32:40.591Z,8152
2017-03-06T12:33:53.697Z,7472
2017-03-06T12:35:06.774Z,7500
2017-03-06T12:36:19.823Z,8324
2017-03-06T12:37:32.917Z,9340
2017-03-06T12:38:45.562Z,10104
2017-03-06T12:39:58.658Z,10384
2017-03-06T12:41:11.750Z,10264
2017-03-06T12:42:24.800Z,9644
2017-03-06T12:43:37.917Z,8772
2017-03-06T12:44:50.559Z,8108
2017-03-06T12:46:03.608Z,7752
2017-03-06T12:47:16.291Z,7364
2017-03-06T12:48:29.379Z,6968
2017-03-06T12:49:42.471Z,6544
2017-03-06T12:50:54.767Z,5972
2017-03-06T12:52:08.345Z,5788
2017-03-06T12:53:21.430Z,6240
2017-03-06T12:54:34.526Z,6740
2017-03-06T12:55:47.629Z,7104
2017-03-06T12:57:00.700Z,7124
2017-03-06T12:58:13.399Z,6768
2017-03-06T12:59:26.069Z,6332
2017-03-06T13:00:39.134Z,5812
2017-03-06T13:01:52.238Z,5420
2017-03-06T13:03:05.308Z,5276
2017-03-06T13:04:17.980Z,5252
2017-03-06T13:05:30.716Z,5128
2017-03-06T13:06:43.413Z,4748
2017-03-06T13:07:56.138Z,4284
2017-03-06T13:09:09.205Z,4172
2017-03-06T13:10:22.280Z,4780
2017-03-06T13:11:34.577Z,5760
2017-03-06T13:12:47.664Z,6776
2017-03-06T13:14:00.347Z,7628
2017-03-06T13:15:13.422Z,8320
2017-03-06T13:16:26.112Z,9104
2017-03-06T13:17:39.182Z,10120
2017-03-06T13:18:52.128Z,11416
2017-03-06T13:20:03.655Z,12692
2017-03-06T13:21:16.738Z,13736
2017-03-06T13:22:29.861Z,14364
2017-03-06T13:23:42.563Z,14484
2017-03-06T13:24:55.680Z,14156
2017-03-06T13:26:08.382Z,13644
2017-03-06T13:27:21.502Z,13140
2017-03-06T13:28:34.564Z,12660
2017-03-06T13:29:47.270Z,12280
2017-03-06T13:30:59.959Z,12012
2017-03-06T13:32:12.284Z,11940
2017-03-06T13:33:24.998Z,12040
2017-03-06T13:34:38.077Z,12224
2017-03-06T13:35:51.171Z,12168
2017-03-06T13:37:03.864Z,11440
2017-03-06T13:38:16.961Z,10476
2017-03-06T13:39:30.048Z,9552
2017-03-06T13:40:42.328Z,8932
2017-03-06T13:41:55.416Z,8564
2017-03-06T13:43:08.498Z,8576
2017-03-06T13:44:21.561Z,8792
2017-03-06T13:45:34.664Z,9360
2017-03-06T13:46:47.406Z,9596
2017-03-06T13:48:00.482Z,9376
2017-03-06T13:49:13.543Z,8608
2017-03-06T13:50:25.812Z,7352
2017-03-06T13:51:38.893Z,5860
2017-03-06T13:52:51.964Z,4464
2017-03-06T13:54:05.060Z,3468
2017-03-06T13:55:17.357Z,2928
2017-03-06T13:56:30.431Z,2684
2017-03-06T13:57:43.500Z,2560
2017-03-06T13:58:56.591Z,2464
2017-03-06T14:00:09.254Z,2320
2017-03-06T14:01:22.337Z,2120
2017-03-06T14:02:35.404Z,1928
2017-03-06T14:03:48.103Z,1732
2017-03-06T14:05:01.140Z,1520
2017-03-06T14:06:14.233Z,1348
2017-03-06T14:07:27.338Z,1216
2017-03-06T14:08:40.057Z,1152
2017-03-06T14:09:53.122Z,1108
2017-03-06T14:11:05.817Z,1084
2017-03-06T14:12:18.887Z,1084
2017-03-06T14:13:31.562Z,1080
2017-03-06T14:14:44.645Z,1048
2017-03-06T14:15:57.736Z,992
2017-03-06T14:17:10.796Z,948
2017-03-06T14:18:23.875Z,972
2017-03-06T14:19:36.174Z,1056
2017-03-06T14:20:49.261Z,1160
2017-03-06T14:22:01.945Z,1272
2017-03-06T14:23:15.006Z,1340
2017-03-06T14:24:28.082Z,1428
2017-03-06T14:25:41.201Z,1528
2017-03-06T14:26:53.902Z,1668
2017-03-06T14:28:06.612Z,1944
2017-03-06T14:29:19.716Z,2268
2017-03-06T14:30:32.779Z,2492
2017-03-06T14:31:45.497Z,2564
2017-03-06T14:32:58.177Z,2628
2017-03-06T14:34:11.226Z,2808
2017-03-06T14:35:23.920Z,3044
2017-03-06T14:36:36.268Z,3236
2017-03-06T14:37:49.355Z,3260
2017-03-06T14:39:02.451Z,3104
2017-03-06T14:40:15.562Z,2904
2017-03-06T14:41:28.624Z,2824
2017-03-06T14:42:41.348Z,2896
2017-03-06T14:43:54.416Z,3064
2017-03-06T14:45:07.112Z,3384
2017-03-06T14:46:20.160Z,3900
2017-03-06T14:47:33.268Z,4548
2017-03-06T14:48:46.350Z,5260
2017-03-06T14:49:59.397Z,5884
2017-03-06T14:51:12.493Z,6456
2017-03-06T14:52:25.605Z,6872
2017-03-06T14:53:38.686Z,7048
2017-03-06T14:54:51.756Z,7112
2017-03-06T14:56:04.838Z,7176
2017-03-06T14:57:17.521Z,7328
2017-03-06T14:58:30.592Z,7592
2017-03-06T14:59:43.685Z,7764
2017-03-06T15:00:56.773Z,7792
2017-03-06T15:02:09.443Z,7756
2017-03-06T15:03:22.497Z,7804
2017-03-06T15:04:35.593Z,7944
2017-03-06T15:05:48.681Z,8056
2017-03-06T15:07:01.801Z,8068
2017-03-06T15:08:14.926Z,8012
2017-03-06T15:09:27.981Z,7920
2017-03-06T15:10:41.047Z,7820
2017-03-06T15:11:53.726Z,7624
2017-03-06T15:13:06.810Z,7260
2017-03-06T15:14:19.502Z,6864
2017-03-06T15:15:32.552Z,6476
2017-03-06T15:16:45.627Z,6164
2017-03-06T15:17:58.677Z,5988
2017-03-06T15:19:11.773Z,5908
2017-03-06T15:20:24.471Z,5828
2017-03-06T15:21:37.560Z,5752
2017-03-06T15:22:50.635Z,5648
2017-03-06T15:24:03.331Z,5572
2017-03-06T15:25:16.023Z,5556
2017-03-06T15:26:29.123Z,5516
2017-03-06T15:27:42.194Z,5456
2017-03-06T15:28:55.260Z,5396
2017-03-06T15:30:08.359Z,5292
2017-03-06T15:31:21.109Z,5096
2017-03-06T15:32:34.205Z,4828
2017-03-06T15:33:47.249Z,4520
2017-03-06T15:35:00.319Z,4164
2017-03-06T15:36:12.629Z,3808
2017-03-06T15:37:25.682Z,3472
2017-03-06T15:38:38.730Z,3216
2017-03-06T15:39:51.820Z,3020
2017-03-06T15:41:04.899Z,2904
2017-03-06T15:42:17.996Z,2828
2017-03-06T15:43:31.053Z,2776
2017-03-06T15:44:43.711Z,2776
2017-03-06T15:45:56.378Z,2828
2017-03-06T15:47:09.079Z,2892
2017-03-06T15:48:21.397Z,2936
2017-03-06T15:49:34.516Z,3000
2017-03-06T15:50:46.792Z,3060
2017-03-06T15:51:59.904Z,3108
2017-03-06T15:53:12.954Z,3076
2017-03-06T15:54:26.030Z,2968
2017-03-06T15:55:39.145Z,2840
2017-03-06T15:56:52.237Z,2748
2017-03-06T15:58:05.346Z,2724
2017-03-06T15:59:18.038Z,2728
2017-03-06T16:00:31.138Z,2740
2017-03-06T16:01:44.196Z,2708
2017-03-06T16:02:57.278Z,2644
2017-03-06T16:04:10.395Z,2544
2017-03-06T16:05:23.466Z,2424
2017-03-06T16:06:36.563Z,2300
2017-03-06T16:07:49.658Z,2192
2017-03-06T16:09:02.742Z,2092
2017-03-06T16:10:15.804Z,2008
2017-03-06T16:11:28.085Z,1940
2017-03-06T16:12:41.133Z,1892
2017-03-06T16:13:54.259Z,1856
2017-03-06T16:15:07.357Z,1828
2017-03-06T16:16:20.043Z,1800
2017-03-06T16:17:33.129Z,1768
2017-03-06T16:18:46.222Z,1728
2017-03-06T16:19:59.330Z,1672
2017-03-06T16:21:12.361Z,1608
2017-03-06T16:22:25.459Z,1536
2017-03-06T16:23:38.529Z,1452
2017-03-06T16:24:51.617Z,1372
2017-03-06T16:26:04.335Z,1292
2017-03-06T16:27:17.380Z,1216
2017-03-06T16:28:30.058Z,1148
2017-03-06T16:29:43.126Z,1084
2017-03-06T16:30:56.196Z,1028
2017-03-06T16:32:08.897Z,984
2017-03-06T16:33:21.967Z,936
2017-03-06T16:34:35.090Z,888
2017-03-06T16:35:47.775Z,836
2017-03-06T16:37:00.905Z,772